sensor_id;sensor_type;location;lat;lon;timestamp;pressure;altitude;pressure_sealevel;temperature;humidity
10587;BME280;5341;47.606;7.576;2023-04-21T00:01:21;98336.03;;;11.31;54.21
10587;BME280;5341;47.606;7.576;2023-04-21T00:03:50;98337.88;;;11.30;54.36
10587;BME280;5341;47.606;7.576;2023-04-21T00:06:18;98338.91;;;11.29;54.16
10587;BME280;5341;47.606;7.576;2023-04-21T00:08:47;98333.91;;;11.26;54.46
10587;BME280;5341;47.606;7.576;2023-04-21T00:11:15;98336.81;;;11.25;53.95
10587;BME280;5341;47.606;7.576;2023-04-21T00:13:42;98329.59;;;11.25;54.53
10587;BME280;5341;47.606;7.576;2023-04-21T00:16:10;98335.16;;;11.24;54.81
10587;BME280;5341;47.606;7.576;2023-04-21T00:18:37;98334.13;;;11.25;54.36
10587;BME280;5341;47.606;7.576;2023-04-21T00:21:06;98340.50;;;11.24;54.72
10587;BME280;5341;47.606;7.576;2023-04-21T00:23:33;98330.00;;;11.22;54.68
10587;BME280;5341;47.606;7.576;2023-04-21T00:26:01;98331.03;;;11.21;54.77
10587;BME280;5341;47.606;7.576;2023-04-21T00:28:29;98327.53;;;11.21;54.48
10587;BME280;5341;47.606;7.576;2023-04-21T00:30:57;98321.34;;;11.20;54.54
10587;BME280;5341;47.606;7.576;2023-04-21T00:33:25;98323.41;;;11.18;54.65
10587;BME280;5341;47.606;7.576;2023-04-21T00:35:54;98317.22;;;11.18;54.63
10587;BME280;5341;47.606;7.576;2023-04-21T00:38:25;98312.88;;;11.17;54.77
10587;BME280;5341;47.606;7.576;2023-04-21T00:40:52;98316.59;;;11.15;54.13
10587;BME280;5341;47.606;7.576;2023-04-21T00:43:20;98309.59;;;11.14;54.54
10587;BME280;5341;47.606;7.576;2023-04-21T00:45:47;98307.91;;;11.13;54.19
10587;BME280;5341;47.606;7.576;2023-04-21T00:48:16;98302.97;;;11.10;54.71
10587;BME280;5341;47.606;7.576;2023-04-21T00:50:44;98308.50;;;11.09;54.70
10587;BME280;5341;47.606;7.576;2023-04-21T00:53:13;98301.50;;;11.08;54.67
10587;BME280;5341;47.606;7.576;2023-04-21T00:55:42;98293.69;;;11.06;54.61
10587;BME280;5341;47.606;7.576;2023-04-21T00:58:10;98297.38;;;11.05;54.66
10587;BME280;5341;47.606;7.576;2023-04-21T01:00:38;98299.44;;;11.03;54.65
10587;BME280;5341;47.606;7.576;2023-04-21T01:03:05;98306.63;;;11.03;54.46
10587;BME280;5341;47.606;7.576;2023-04-21T01:05:33;98301.66;;;11.00;54.70
10587;BME280;5341;47.606;7.576;2023-04-21T01:08:01;98299.81;;;11.00;54.12
10587;BME280;5341;47.606;7.576;2023-04-21T01:10:29;98304.53;;;10.98;54.19
10587;BME280;5341;47.606;7.576;2023-04-21T01:12:58;98304.72;;;10.97;54.61
10587;BME280;5341;47.606;7.576;2023-04-21T01:15:25;98304.94;;;10.95;54.19
10587;BME280;5341;47.606;7.576;2023-04-21T01:17:57;98301.63;;;10.93;54.24
10587;BME280;5341;47.606;7.576;2023-04-21T01:20:25;98299.16;;;10.92;54.43
10587;BME280;5341;47.606;7.576;2023-04-21T01:22:56;98300.19;;;10.91;53.99
10587;BME280;5341;47.606;7.576;2023-04-21T01:25:23;98300.34;;;10.89;54.40
10587;BME280;5341;47.606;7.576;2023-04-21T01:27:55;98297.88;;;10.88;54.60
10587;BME280;5341;47.606;7.576;2023-04-21T01:30:22;98299.72;;;10.87;53.96
10587;BME280;5341;47.606;7.576;2023-04-21T01:32:50;98304.25;;;10.86;54.35
10587;BME280;5341;47.606;7.576;2023-04-21T01:35:17;98304.44;;;10.85;54.10
10587;BME280;5341;47.606;7.576;2023-04-21T01:37:45;98309.78;;;10.85;54.08
10587;BME280;5341;47.606;7.576;2023-04-21T01:40:14;98298.47;;;10.83;53.87
10587;BME280;5341;47.606;7.576;2023-04-21T01:42:42;98298.66;;;10.81;53.92
10587;BME280;5341;47.606;7.576;2023-04-21T01:45:10;98296.81;;;10.82;53.77
10587;BME280;5341;47.606;7.576;2023-04-21T01:47:38;98298.88;;;10.80;54.11
10587;BME280;5341;47.606;7.576;2023-04-21T01:50:06;98306.06;;;10.79;54.51
10587;BME280;5341;47.606;7.576;2023-04-21T01:52:34;98300.88;;;10.78;54.05
10587;BME280;5341;47.606;7.576;2023-04-21T01:55:02;98299.22;;;10.77;54.00
10587;BME280;5341;47.606;7.576;2023-04-21T01:57:31;98293.25;;;10.75;53.85
10587;BME280;5341;47.606;7.576;2023-04-21T01:59:58;98291.41;;;10.75;54.13
10587;BME280;5341;47.606;7.576;2023-04-21T02:02:27;98289.94;;;10.73;54.07
10587;BME280;5341;47.606;7.576;2023-04-21T02:04:55;98297.16;;;10.72;53.96
10587;BME280;5341;47.606;7.576;2023-04-21T02:07:23;98301.03;;;10.70;53.98
10587;BME280;5341;47.606;7.576;2023-04-21T02:09:52;98303.91;;;10.68;54.40
10587;BME280;5341;47.606;7.576;2023-04-21T02:12:20;98303.91;;;10.68;54.30
10587;BME280;5341;47.606;7.576;2023-04-21T02:14:48;98303.28;;;10.66;54.21
10587;BME280;5341;47.606;7.576;2023-04-21T02:17:17;98306.13;;;10.65;54.10
10587;BME280;5341;47.606;7.576;2023-04-21T02:19:44;98307.16;;;10.64;54.34
10587;BME280;5341;47.606;7.576;2023-04-21T02:22:13;98316.19;;;10.63;53.99
10587;BME280;5341;47.606;7.576;2023-04-21T02:24:40;98311.03;;;10.61;53.93
10587;BME280;5341;47.606;7.576;2023-04-21T02:27:08;98316.59;;;10.60;53.80
10587;BME280;5341;47.606;7.576;2023-04-21T02:29:35;98322.97;;;10.59;53.91
10587;BME280;5341;47.606;7.576;2023-04-21T02:32:08;98315.97;;;10.57;53.97
10587;BME280;5341;47.606;7.576;2023-04-21T02:34:36;98324.19;;;10.56;54.14
10587;BME280;5341;47.606;7.576;2023-04-21T02:37:05;98321.69;;;10.54;53.38
10587;BME280;5341;47.606;7.576;2023-04-21T02:39:34;98322.69;;;10.53;54.42
10587;BME280;5341;47.606;7.576;2023-04-21T02:42:04;98323.72;;;10.52;53.89
10587;BME280;5341;47.606;7.576;2023-04-21T02:44:32;98314.03;;;10.51;53.88
10587;BME280;5341;47.606;7.576;2023-04-21T02:47:01;98315.06;;;10.50;53.94
10587;BME280;5341;47.606;7.576;2023-04-21T02:49:31;98306.41;;;10.48;53.89
10587;BME280;5341;47.606;7.576;2023-04-21T02:51:59;98310.13;;;10.47;54.00
10587;BME280;5341;47.606;7.576;2023-04-21T02:54:26;98305.78;;;10.46;53.88
10587;BME280;5341;47.606;7.576;2023-04-21T02:56:54;98306.81;;;10.45;53.59
10587;BME280;5341;47.606;7.576;2023-04-21T02:59:21;98315.03;;;10.44;53.49
10587;BME280;5341;47.606;7.576;2023-04-21T03:01:48;98314.41;;;10.42;53.87
10587;BME280;5341;47.606;7.576;2023-04-21T03:04:17;98313.53;;;10.41;54.16
10587;BME280;5341;47.606;7.576;2023-04-21T03:06:48;98316.41;;;10.40;54.01
10587;BME280;5341;47.606;7.576;2023-04-21T03:09:16;98318.25;;;10.39;53.61
10587;BME280;5341;47.606;7.576;2023-04-21T03:11:43;98312.28;;;10.37;53.79
10587;BME280;5341;47.606;7.576;2023-04-21T03:14:11;98312.47;;;10.36;53.50
10587;BME280;5341;47.606;7.576;2023-04-21T03:16:38;98311.03;;;10.33;53.76
10587;BME280;5341;47.606;7.576;2023-04-21T03:19:06;98314.53;;;10.34;53.78
10587;BME280;5341;47.606;7.576;2023-04-21T03:21:36;98319.22;;;10.32;53.44
10587;BME280;5341;47.606;7.576;2023-04-21T03:24:06;98318.22;;;10.33;53.67
10587;BME280;5341;47.606;7.576;2023-04-21T03:26:34;98316.56;;;10.32;54.12
10587;BME280;5341;47.606;7.576;2023-04-21T03:29:02;98319.44;;;10.30;53.77
10587;BME280;5341;47.606;7.576;2023-04-21T03:31:29;98316.75;;;10.30;54.46
10587;BME280;5341;47.606;7.576;2023-04-21T03:33:57;98313.41;;;10.28;53.90
10587;BME280;5341;47.606;7.576;2023-04-21T03:36:24;98315.06;;;10.29;53.98
10587;BME280;5341;47.606;7.576;2023-04-21T03:38:52;98318.13;;;10.26;54.62
10587;BME280;5341;47.606;7.576;2023-04-21T03:41:20;98311.97;;;10.25;54.31
10587;BME280;5341;47.606;7.576;2023-04-21T03:43:49;98305.78;;;10.25;54.45
10587;BME280;5341;47.606;7.576;2023-04-21T03:46:19;98312.16;;;10.24;53.91
10587;BME280;5341;47.606;7.576;2023-04-21T03:48:47;98313.19;;;10.23;54.28
10587;BME280;5341;47.606;7.576;2023-04-21T03:51:14;98316.69;;;10.23;54.36
10587;BME280;5341;47.606;7.576;2023-04-21T03:53:42;98317.50;;;10.24;54.21
10587;BME280;5341;47.606;7.576;2023-04-21T03:56:09;98323.03;;;10.22;54.61
10587;BME280;5341;47.606;7.576;2023-04-21T03:58:38;98318.88;;;10.20;54.43
10587;BME280;5341;47.606;7.576;2023-04-21T04:01:06;98315.19;;;10.21;54.65
10587;BME280;5341;47.606;7.576;2023-04-21T04:03:34;98321.56;;;10.20;53.99
10587;BME280;5341;47.606;7.576;2023-04-21T04:06:02;98307.16;;;10.21;54.32
10587;BME280;5341;47.606;7.576;2023-04-21T04:08:31;98316.22;;;10.20;54.20
10587;BME280;5341;47.606;7.576;2023-04-21T04:10:58;98317.84;;;10.21;54.43
10587;BME280;5341;47.606;7.576;2023-04-21T04:13:26;98320.53;;;10.21;54.71
10587;BME280;5341;47.606;7.576;2023-04-21T04:15:56;98316.88;;;10.22;54.66
10587;BME280;5341;47.606;7.576;2023-04-21T04:18:24;98316.88;;;10.22;54.74
10587;BME280;5341;47.606;7.576;2023-04-21T04:20:51;98320.53;;;10.21;54.71
10587;BME280;5341;47.606;7.576;2023-04-21T04:23:19;98326.72;;;10.21;54.40
10587;BME280;5341;47.606;7.576;2023-04-21T04:25:46;98317.84;;;10.21;54.33
10587;BME280;5341;47.606;7.576;2023-04-21T04:28:14;98321.41;;;10.21;54.37
10587;BME280;5341;47.606;7.576;2023-04-21T04:30:41;98320.53;;;10.21;53.99
10587;BME280;5341;47.606;7.576;2023-04-21T04:33:11;98312.53;;;10.21;54.53
10587;BME280;5341;47.606;7.576;2023-04-21T04:35:39;98320.38;;;10.22;54.26
10587;BME280;5341;47.606;7.576;2023-04-21T04:38:06;98315.19;;;10.21;54.54
10587;BME280;5341;47.606;7.576;2023-04-21T04:40:34;98322.38;;;10.20;54.42
10587;BME280;5341;47.606;7.576;2023-04-21T04:43:01;98318.88;;;10.20;54.96
10587;BME280;5341;47.606;7.576;2023-04-21T04:45:28;98330.22;;;10.22;54.46
10587;BME280;5341;47.606;7.576;2023-04-21T04:47:57;98325.88;;;10.21;54.69
10587;BME280;5341;47.606;7.576;2023-04-21T04:50:27;98325.06;;;10.20;54.51
10587;BME280;5341;47.606;7.576;2023-04-21T04:52:54;98321.56;;;10.20;54.15
10587;BME280;5341;47.606;7.576;2023-04-21T04:55:22;98329.41;;;10.21;54.38
10587;BME280;5341;47.606;7.576;2023-04-21T04:57:50;98331.22;;;10.21;54.88
10587;BME280;5341;47.606;7.576;2023-04-21T05:00:18;98339.44;;;10.19;54.50
10587;BME280;5341;47.606;7.576;2023-04-21T05:02:46;98333.25;;;10.19;54.81
10587;BME280;5341;47.606;7.576;2023-04-21T05:05:13;98327.91;;;10.19;54.48
10587;BME280;5341;47.606;7.576;2023-04-21T05:07:42;98331.63;;;10.18;54.25
10587;BME280;5341;47.606;7.576;2023-04-21T05:10:09;98327.91;;;10.19;54.32
10587;BME280;5341;47.606;7.576;2023-04-21T05:12:39;98339.44;;;10.19;54.63
10587;BME280;5341;47.606;7.576;2023-04-21T05:15:08;98333.25;;;10.19;54.77
10587;BME280;5341;47.606;7.576;2023-04-21T05:17:35;98327.91;;;10.19;54.79
10587;BME280;5341;47.606;7.576;2023-04-21T05:20:03;98334.91;;;10.20;54.26
10587;BME280;5341;47.606;7.576;2023-04-21T05:22:31;98331.41;;;10.19;54.49
10587;BME280;5341;47.606;7.576;2023-04-21T05:25:05;98334.09;;;10.19;54.47
10587;BME280;5341;47.606;7.576;2023-04-21T05:27:32;98332.44;;;10.18;54.77
10587;BME280;5341;47.606;7.576;2023-04-21T05:30:00;98348.28;;;10.20;54.67
10587;BME280;5341;47.606;7.576;2023-04-21T05:32:27;98350.94;;;10.20;54.28
10587;BME280;5341;47.606;7.576;2023-04-21T05:34:55;98350.13;;;10.19;54.98
10587;BME280;5341;47.606;7.576;2023-04-21T05:37:25;98356.28;;;10.20;54.78
10587;BME280;5341;47.606;7.576;2023-04-21T05:39:53;98361.63;;;10.20;54.41
10587;BME280;5341;47.606;7.576;2023-04-21T05:42:23;98349.94;;;10.21;54.65
10587;BME280;5341;47.606;7.576;2023-04-21T05:44:52;98350.78;;;10.21;54.97
10587;BME280;5341;47.606;7.576;2023-04-21T05:47:20;98342.78;;;10.21;54.84
10587;BME280;5341;47.606;7.576;2023-04-21T05:49:50;98348.75;;;10.23;54.75
10587;BME280;5341;47.606;7.576;2023-04-21T05:52:19;98339.72;;;10.24;54.45
10587;BME280;5341;47.606;7.576;2023-04-21T05:54:47;98343.22;;;10.25;54.72
10587;BME280;5341;47.606;7.576;2023-04-21T05:57:14;98337.66;;;10.26;54.66
10587;BME280;5341;47.606;7.576;2023-04-21T05:59:44;98339.31;;;10.27;54.35
10587;BME280;5341;47.606;7.576;2023-04-21T06:02:12;98335.63;;;10.28;55.16
10587;BME280;5341;47.606;7.576;2023-04-21T06:04:39;98332.78;;;10.30;54.54
10587;BME280;5341;47.606;7.576;2023-04-21T06:07:07;98331.78;;;10.31;54.64
10587;BME280;5341;47.606;7.576;2023-04-21T06:09:38;98327.06;;;10.33;54.79
10587;BME280;5341;47.606;7.576;2023-04-21T06:12:06;98326.03;;;10.34;54.75
10587;BME280;5341;47.606;7.576;2023-04-21T06:14:33;98321.13;;;10.38;54.45
10587;BME280;5341;47.606;7.576;2023-04-21T06:17:02;98323.81;;;10.38;54.56
10587;BME280;5341;47.606;7.576;2023-04-21T06:19:35;98311.25;;;10.38;55.01
10587;BME280;5341;47.606;7.576;2023-04-21T06:22:03;98302.84;;;10.41;55.40
10587;BME280;5341;47.606;7.576;2023-04-21T06:24:31;98315.22;;;10.42;55.57
10587;BME280;5341;47.606;7.576;2023-04-21T06:26:59;98314.84;;;10.45;55.21
10587;BME280;5341;47.606;7.576;2023-04-21T06:29:26;98314.63;;;10.47;55.13
10587;BME280;5341;47.606;7.576;2023-04-21T06:31:54;98323.28;;;10.49;55.44
10587;BME280;5341;47.606;7.576;2023-04-21T06:34:22;98333.59;;;10.52;55.65
10587;BME280;5341;47.606;7.576;2023-04-21T06:36:51;98343.91;;;10.55;55.48
10587;BME280;5341;47.606;7.576;2023-04-21T06:39:18;98347.22;;;10.57;56.02
10587;BME280;5341;47.606;7.576;2023-04-21T06:41:46;98325.84;;;10.57;55.96
10587;BME280;5341;47.606;7.576;2023-04-21T06:44:13;98323.78;;;10.59;55.74
10587;BME280;5341;47.606;7.576;2023-04-21T06:46:41;98319.91;;;10.62;56.58
10587;BME280;5341;47.606;7.576;2023-04-21T06:49:10;98328.53;;;10.64;56.25
10587;BME280;5341;47.606;7.576;2023-04-21T06:51:39;98323.81;;;10.66;56.61
10587;BME280;5341;47.606;7.576;2023-04-21T06:54:07;98315.63;;;10.67;56.27
10587;BME280;5341;47.606;7.576;2023-04-21T06:56:34;98317.09;;;10.70;56.76
10587;BME280;5341;47.606;7.576;2023-04-21T06:59:02;98326.56;;;10.72;56.30
10587;BME280;5341;47.606;7.576;2023-04-21T07:01:31;98325.81;;;10.78;56.91
10587;BME280;5341;47.606;7.576;2023-04-21T07:03:58;98323.56;;;10.82;56.66
10587;BME280;5341;47.606;7.576;2023-04-21T07:06:26;98314.13;;;10.86;56.88
10587;BME280;5341;47.606;7.576;2023-04-21T07:08:55;98312.69;;;10.90;56.66
10587;BME280;5341;47.606;7.576;2023-04-21T07:11:23;98309.44;;;10.95;56.84
10587;BME280;5341;47.606;7.576;2023-04-21T07:13:50;98308.03;;;10.99;56.98
10587;BME280;5341;47.606;7.576;2023-04-21T07:16:18;98303.56;;;11.06;56.83
10587;BME280;5341;47.606;7.576;2023-04-21T07:18:46;98298.44;;;11.11;57.07
10587;BME280;5341;47.606;7.576;2023-04-21T07:21:14;98295.19;;;11.15;56.84
10587;BME280;5341;47.606;7.576;2023-04-21T07:23:41;98285.72;;;11.20;57.14
10587;BME280;5341;47.606;7.576;2023-04-21T07:26:11;98279.41;;;11.27;57.68
10587;BME280;5341;47.606;7.576;2023-04-21T07:28:38;98283.75;;;11.35;56.61
10587;BME280;5341;47.606;7.576;2023-04-21T07:31:08;98269.38;;;11.42;56.54
10587;BME280;5341;47.606;7.576;2023-04-21T07:33:42;98255.78;;;11.51;57.24
10587;BME280;5341;47.606;7.576;2023-04-21T07:36:11;98250.06;;;11.60;57.03
10587;BME280;5341;47.606;7.576;2023-04-21T07:38:41;98258.53;;;11.70;57.36
10587;BME280;5341;47.606;7.576;2023-04-21T07:41:13;98266.03;;;11.82;56.63
10587;BME280;5341;47.606;7.576;2023-04-21T07:43:40;98267.91;;;11.88;56.15
10587;BME280;5341;47.606;7.576;2023-04-21T07:46:08;98266.25;;;11.93;57.14
10587;BME280;5341;47.606;7.576;2023-04-21T07:48:35;98250.81;;;12.02;56.65
10587;BME280;5341;47.606;7.576;2023-04-21T07:51:03;98251.25;;;12.12;56.24
10587;BME280;5341;47.606;7.576;2023-04-21T07:53:32;98251.84;;;12.21;56.80
10587;BME280;5341;47.606;7.576;2023-04-21T07:56:04;98245.47;;;12.28;56.58
10587;BME280;5341;47.606;7.576;2023-04-21T07:58:36;98238.69;;;12.39;56.40
10587;BME280;5341;47.606;7.576;2023-04-21T08:01:07;98240.13;;;12.48;56.31
10587;BME280;5341;47.606;7.576;2023-04-21T08:03:41;98246.69;;;12.59;55.99
10587;BME280;5341;47.606;7.576;2023-04-21T08:06:15;98246.28;;;12.69;55.93
10587;BME280;5341;47.606;7.576;2023-04-21T08:08:43;98234.53;;;12.76;55.60
10587;BME280;5341;47.606;7.576;2023-04-21T08:11:11;98237.81;;;12.85;55.44
10587;BME280;5341;47.606;7.576;2023-04-21T08:13:40;98234.28;;;12.91;55.43
10587;BME280;5341;47.606;7.576;2023-04-21T08:16:07;98228.91;;;12.98;55.43
10587;BME280;5341;47.606;7.576;2023-04-21T08:18:35;98230.31;;;13.07;55.09
10587;BME280;5341;47.606;7.576;2023-04-21T08:21:03;98236.28;;;13.15;55.31
10587;BME280;5341;47.606;7.576;2023-04-21T08:23:30;98235.25;;;13.23;55.33
10587;BME280;5341;47.606;7.576;2023-04-21T08:25:58;98239.56;;;13.31;54.99
10587;BME280;5341;47.606;7.576;2023-04-21T08:28:25;98243.06;;;13.38;54.31
10587;BME280;5341;47.606;7.576;2023-04-21T08:30:54;98228.75;;;13.44;54.54
10587;BME280;5341;47.606;7.576;2023-04-21T08:33:21;98227.09;;;13.49;54.14
10587;BME280;5341;47.606;7.576;2023-04-21T08:35:49;98228.72;;;13.57;54.25
10587;BME280;5341;47.606;7.576;2023-04-21T08:38:16;98238.00;;;13.61;53.68
10587;BME280;5341;47.606;7.576;2023-04-21T08:40:44;98236.94;;;13.69;53.85
10587;BME280;5341;47.606;7.576;2023-04-21T08:43:12;98230.03;;;13.79;53.92
10587;BME280;5341;47.606;7.576;2023-04-21T08:45:40;98220.88;;;13.87;53.70
10587;BME280;5341;47.606;7.576;2023-04-21T08:48:12;98230.56;;;13.95;53.63
10587;BME280;5341;47.606;7.576;2023-04-21T08:50:44;98223.69;;;14.05;53.85
10587;BME280;5341;47.606;7.576;2023-04-21T08:53:13;98236.63;;;14.15;53.63
10587;BME280;5341;47.606;7.576;2023-04-21T08:55:41;98232.41;;;14.26;53.58
10587;BME280;5341;47.606;7.576;2023-04-21T08:58:09;98227.72;;;14.40;53.56
10587;BME280;5341;47.606;7.576;2023-04-21T09:00:38;98228.09;;;14.50;53.16
10587;BME280;5341;47.606;7.576;2023-04-21T09:03:06;98228.88;;;14.57;52.59
10587;BME280;5341;47.606;7.576;2023-04-21T09:05:36;98242.03;;;14.65;52.39
10587;BME280;5341;47.606;7.576;2023-04-21T09:08:08;98243.84;;;14.71;52.43
10587;BME280;5341;47.606;7.576;2023-04-21T09:10:47;98240.25;;;14.77;52.40
10587;BME280;5341;47.606;7.576;2023-04-21T09:13:15;98237.97;;;14.81;52.33
10587;BME280;5341;47.606;7.576;2023-04-21T09:15:45;98238.13;;;14.86;52.45
10587;BME280;5341;47.606;7.576;2023-04-21T09:18:18;98227.88;;;14.94;52.36
10587;BME280;5341;47.606;7.576;2023-04-21T09:20:50;98221.53;;;15.07;52.31
10587;BME280;5341;47.606;7.576;2023-04-21T09:23:20;98220.41;;;15.15;51.76
10587;BME280;5341;47.606;7.576;2023-04-21T09:25:48;98217.28;;;15.18;51.38
10587;BME280;5341;47.606;7.576;2023-04-21T09:28:17;98212.13;;;15.16;51.21
10587;BME280;5341;47.606;7.576;2023-04-21T09:30:45;98219.97;;;15.18;51.09
10587;BME280;5341;47.606;7.576;2023-04-21T09:33:16;98233.78;;;15.21;50.92
10587;BME280;5341;47.606;7.576;2023-04-21T09:35:44;98240.38;;;15.25;50.84
10587;BME280;5341;47.606;7.576;2023-04-21T09:38:15;98235.97;;;15.31;50.73
10587;BME280;5341;47.606;7.576;2023-04-21T09:40:44;98236.09;;;15.36;50.71
10587;BME280;5341;47.606;7.576;2023-04-21T09:43:12;98237.97;;;15.36;50.71
10587;BME280;5341;47.606;7.576;2023-04-21T09:45:45;98235.44;;;15.41;50.63
10587;BME280;5341;47.606;7.576;2023-04-21T09:48:16;98228.53;;;15.45;50.15
10587;BME280;5341;47.606;7.576;2023-04-21T09:50:45;98226.66;;;15.45;50.21
10587;BME280;5341;47.606;7.576;2023-04-21T09:53:16;98219.63;;;15.44;50.13
10587;BME280;5341;47.606;7.576;2023-04-21T09:55:51;98225.63;;;15.46;50.07
10587;BME280;5341;47.606;7.576;2023-04-21T09:58:29;98217.06;;;15.49;50.40
10587;BME280;5341;47.606;7.576;2023-04-21T10:01:02;98213.25;;;15.57;50.33
10587;BME280;5341;47.606;7.576;2023-04-21T10:03:43;98205.94;;;15.64;50.19
10587;BME280;5341;47.606;7.576;2023-04-21T10:06:18;98216.38;;;15.72;50.14
10587;BME280;5341;47.606;7.576;2023-04-21T10:08:48;98208.47;;;15.77;49.72
10587;BME280;5341;47.606;7.576;2023-04-21T10:11:21;98211.03;;;15.84;49.81
10587;BME280;5341;47.606;7.576;2023-04-21T10:13:49;98216.94;;;15.93;49.83
10587;BME280;5341;47.606;7.576;2023-04-21T10:16:21;98231.16;;;16.00;49.31
10587;BME280;5341;47.606;7.576;2023-04-21T10:18:49;98215.69;;;16.07;49.13
10587;BME280;5341;47.606;7.576;2023-04-21T10:21:17;98210.19;;;16.14;49.22
10587;BME280;5341;47.606;7.576;2023-04-21T10:23:55;98216.53;;;16.19;48.89
10587;BME280;5341;47.606;7.576;2023-04-21T10:26:33;98225.34;;;16.26;49.01
10587;BME280;5341;47.606;7.576;2023-04-21T10:29:03;98220.91;;;16.32;48.68
10587;BME280;5341;47.606;7.576;2023-04-21T10:31:33;98223.34;;;16.33;48.58
10587;BME280;5341;47.606;7.576;2023-04-21T10:34:19;98221.88;;;16.37;48.28
10587;BME280;5341;47.606;7.576;2023-04-21T10:39:56;98200.03;;;16.39;48.70
10587;BME280;5341;47.606;7.576;2023-04-21T10:42:33;98198.16;;;16.39;48.51
10587;BME280;5341;47.606;7.576;2023-04-21T10:45:09;98199.44;;;16.37;48.13
10587;BME280;5341;47.606;7.576;2023-04-21T10:47:44;98200.28;;;16.37;48.25
10587;BME280;5341;47.606;7.576;2023-04-21T10:50:19;98200.28;;;16.37;47.99
10587;BME280;5341;47.606;7.576;2023-04-21T10:52:52;98203.56;;;16.39;47.92
10587;BME280;5341;47.606;7.576;2023-04-21T10:55:25;98193.44;;;16.47;48.22
10587;BME280;5341;47.606;7.576;2023-04-21T10:57:53;98196.63;;;16.55;47.95
10587;BME280;5341;47.606;7.576;2023-04-21T11:00:23;98192.53;;;16.64;47.89
10587;BME280;5341;47.606;7.576;2023-04-21T11:02:54;98179.53;;;16.73;48.18
10587;BME280;5341;47.606;7.576;2023-04-21T11:05:33;98165.66;;;16.81;47.57
10587;BME280;5341;47.606;7.576;2023-04-21T11:08:04;98169.06;;;16.88;47.73
10587;BME280;5341;47.606;7.576;2023-04-21T11:10:55;98180.53;;;16.95;46.87
10587;BME280;5341;47.606;7.576;2023-04-21T11:13:25;98184.31;;;16.94;47.11
10587;BME280;5341;47.606;7.576;2023-04-21T11:15:59;98189.50;;;16.96;47.02
10587;BME280;5341;47.606;7.576;2023-04-21T11:18:38;98188.78;;;17.01;46.71
10587;BME280;5341;47.606;7.576;2023-04-21T11:21:08;98194.41;;;16.99;47.04
10587;BME280;5341;47.606;7.576;2023-04-21T11:23:38;98190.91;;;16.98;46.47
10587;BME280;5341;47.606;7.576;2023-04-21T11:26:08;98193.03;;;16.96;46.57
10587;BME280;5341;47.606;7.576;2023-04-21T11:28:36;98199.34;;;16.90;46.58
10587;BME280;5341;47.606;7.576;2023-04-21T11:31:03;98207.13;;;16.87;47.00
10587;BME280;5341;47.606;7.576;2023-04-21T11:33:35;98213.56;;;16.86;47.23
10587;BME280;5341;47.606;7.576;2023-04-21T11:36:04;98211.13;;;16.84;47.06
10587;BME280;5341;47.606;7.576;2023-04-21T11:38:36;98213.22;;;16.82;46.71
10587;BME280;5341;47.606;7.576;2023-04-21T11:41:04;98210.16;;;16.79;47.13
10587;BME280;5341;47.606;7.576;2023-04-21T11:43:33;98204.19;;;16.77;47.17
10587;BME280;5341;47.606;7.576;2023-04-21T11:46:21;98206.88;;;16.77;47.14
10587;BME280;5341;47.606;7.576;2023-04-21T11:48:57;98210.88;;;16.74;46.80
10587;BME280;5341;47.606;7.576;2023-04-21T11:51:25;98215.69;;;16.72;46.80
10587;BME280;5341;47.606;7.576;2023-04-21T11:53:54;98215.31;;;16.68;46.91
10587;BME280;5341;47.606;7.576;2023-04-21T11:56:21;98212.63;;;16.68;47.46
10587;BME280;5341;47.606;7.576;2023-04-21T11:58:51;98204.28;;;16.70;47.48
10587;BME280;5341;47.606;7.576;2023-04-21T12:01:19;98215.47;;;16.74;47.38
10587;BME280;5341;47.606;7.576;2023-04-21T12:03:51;98212.03;;;16.78;47.43
10587;BME280;5341;47.606;7.576;2023-04-21T12:06:25;98209.69;;;16.82;47.32
10587;BME280;5341;47.606;7.576;2023-04-21T12:08:59;98196.91;;;16.89;47.97
10587;BME280;5341;47.606;7.576;2023-04-21T12:11:28;98207.22;;;16.92;47.46
10587;BME280;5341;47.606;7.576;2023-04-21T12:13:57;98209.91;;;16.92;47.37
10587;BME280;5341;47.606;7.576;2023-04-21T12:16:26;98204.75;;;16.90;47.63
10587;BME280;5341;47.606;7.576;2023-04-21T12:18:54;98214.50;;;16.91;47.54
10587;BME280;5341;47.606;7.576;2023-04-21T12:21:26;98207.22;;;16.92;47.50
10587;BME280;5341;47.606;7.576;2023-04-21T12:23:53;98207.69;;;16.89;47.52
10587;BME280;5341;47.606;7.576;2023-04-21T12:26:21;98205.81;;;16.89;47.63
10587;BME280;5341;47.606;7.576;2023-04-21T12:28:49;98210.41;;;16.89;47.86
10587;BME280;5341;47.606;7.576;2023-04-21T12:31:18;98210.97;;;16.91;48.16
10587;BME280;5341;47.606;7.576;2023-04-21T12:33:46;98212.84;;;16.90;47.77
10587;BME280;5341;47.606;7.576;2023-04-21T12:36:13;98218.75;;;16.87;47.77
10587;BME280;5341;47.606;7.576;2023-04-21T12:38:41;98211.13;;;16.84;47.56
10587;BME280;5341;47.606;7.576;2023-04-21T12:41:09;98214.25;;;16.81;47.72
10587;BME280;5341;47.606;7.576;2023-04-21T12:43:36;98220.63;;;16.75;47.27
10587;BME280;5341;47.606;7.576;2023-04-21T12:46:04;98221.31;;;16.70;47.89
10587;BME280;5341;47.606;7.576;2023-04-21T12:48:33;98233.59;;;16.66;47.93
10587;BME280;5341;47.606;7.576;2023-04-21T12:51:00;98233.84;;;16.65;47.76
10587;BME280;5341;47.606;7.576;2023-04-21T12:53:28;98230.81;;;16.61;47.78
10587;BME280;5341;47.606;7.576;2023-04-21T12:55:55;98226.00;;;16.63;48.01
10587;BME280;5341;47.606;7.576;2023-04-21T12:58:23;98220.81;;;16.62;47.97
10587;BME280;5341;47.606;7.576;2023-04-21T13:00:50;98233.94;;;16.58;47.68
10587;BME280;5341;47.606;7.576;2023-04-21T13:03:18;98221.16;;;16.54;47.51
10587;BME280;5341;47.606;7.576;2023-04-21T13:05:47;98220.81;;;16.50;47.60
10587;BME280;5341;47.606;7.576;2023-04-21T13:08:15;98220.44;;;16.47;47.71
10587;BME280;5341;47.606;7.576;2023-04-21T13:10:43;98224.44;;;16.44;47.49
10587;BME280;5341;47.606;7.576;2023-04-21T13:13:10;98221.63;;;16.39;47.66
10587;BME280;5341;47.606;7.576;2023-04-21T13:15:38;98223.97;;;16.35;48.03
10587;BME280;5341;47.606;7.576;2023-04-21T13:18:06;98218.44;;;16.30;47.99
10587;BME280;5341;47.606;7.576;2023-04-21T13:20:33;98233.22;;;16.28;48.11
10587;BME280;5341;47.606;7.576;2023-04-21T13:23:02;98226.84;;;16.22;48.07